createdAt,value
2022-11-30T00:01:24.770Z,0.90
2022-11-30T00:03:56.097Z,0.90
2022-11-30T00:06:24.273Z,0.80
2022-11-30T00:09:00.657Z,1.30
2022-11-30T00:11:29.156Z,0.70
2022-11-30T00:13:56.892Z,0.90
2022-11-30T00:16:24.122Z,0.80
2022-11-30T00:18:51.325Z,0.70
2022-11-30T00:21:20.164Z,0.80
2022-11-30T00:23:47.808Z,0.70
2022-11-30T00:26:18.316Z,0.70
2022-11-30T00:28:46.779Z,1.10
2022-11-30T00:31:16.696Z,0.70
2022-11-30T00:33:43.966Z,0.60
2022-11-30T00:36:15.815Z,0.60
2022-11-30T00:38:43.728Z,0.60
2022-11-30T00:41:11.099Z,0.60
2022-11-30T00:43:38.345Z,0.60
2022-11-30T00:46:06.194Z,0.60
2022-11-30T00:48:33.049Z,0.60
2022-11-30T00:50:59.953Z,0.60
2022-11-30T00:53:27.387Z,0.60
2022-11-30T00:55:54.566Z,0.50
2022-11-30T00:58:21.541Z,1.40
2022-11-30T01:00:48.587Z,0.50
2022-11-30T01:03:16.795Z,0.50
2022-11-30T01:05:43.618Z,0.50
2022-11-30T01:08:11.884Z,0.60
2022-11-30T01:10:41.060Z,1.20
2022-11-30T01:13:08.418Z,1.40
2022-11-30T01:15:40.836Z,1.10
2022-11-30T01:18:07.748Z,0.40
2022-11-30T01:20:35.172Z,0.30
2022-11-30T01:23:01.980Z,0.80
2022-11-30T01:25:29.763Z,0.30
2022-11-30T01:27:56.765Z,0.30
2022-11-30T01:30:24.048Z,0.30
2022-11-30T01:32:50.828Z,0.20
2022-11-30T01:35:18.056Z,1.50
2022-11-30T01:37:44.824Z,0.30
2022-11-30T01:40:12.694Z,0.30
2022-11-30T01:42:46.829Z,0.20
2022-11-30T01:45:16.145Z,0.20
2022-11-30T01:47:49.735Z,0.20
2022-11-30T01:50:19.697Z,0.20
2022-11-30T01:52:54.908Z,0.10
2022-11-30T01:55:29.860Z,0.10
2022-11-30T01:58:08.616Z,0.10
2022-11-30T02:00:36.274Z,0.10
2022-11-30T02:05:43.277Z,0.10
2022-11-30T02:08:11.640Z,0.10
2022-11-30T02:10:42.575Z,0.10
2022-11-30T02:13:18.537Z,0.10
2022-11-30T02:16:05.211Z,0.10
2022-11-30T02:19:12.276Z,0.10
2022-11-30T02:21:52.559Z,0.20
2022-11-30T02:24:32.080Z,0.20
2022-11-30T02:27:19.130Z,0.20
2022-11-30T02:30:15.347Z,0.10
2022-11-30T02:33:02.792Z,0.80
2022-11-30T02:35:36.147Z,0.00
2022-11-30T02:38:05.715Z,1.10
2022-11-30T02:40:33.187Z,0.00
2022-11-30T02:43:03.710Z,0.00
2022-11-30T02:45:47.026Z,0.00
2022-11-30T02:48:18.284Z,-0.10
2022-11-30T02:50:51.050Z,0.00
2022-11-30T02:53:18.070Z,1.00
2022-11-30T02:55:44.865Z,0.20
2022-11-30T02:58:13.276Z,0.10
2022-11-30T03:00:42.846Z,0.80
2022-11-30T03:03:11.052Z,0.00
2022-11-30T03:05:38.311Z,0.00
2022-11-30T03:08:05.744Z,0.00
2022-11-30T03:10:32.537Z,-0.10
2022-11-30T03:13:00.527Z,-0.10
2022-11-30T03:15:28.377Z,0.00
2022-11-30T03:17:55.992Z,0.10
2022-11-30T03:20:22.894Z,0.10
2022-11-30T03:22:49.746Z,0.10
2022-11-30T03:25:16.545Z,0.50
2022-11-30T03:27:43.334Z,0.20
2022-11-30T03:30:11.168Z,0.00
2022-11-30T03:32:38.477Z,0.00
2022-11-30T03:35:05.685Z,0.00
2022-11-30T03:37:32.978Z,0.00
2022-11-30T03:39:59.777Z,-0.10
2022-11-30T03:42:27.302Z,-0.10
2022-11-30T03:44:54.073Z,-0.10
2022-11-30T03:47:21.322Z,-0.10
2022-11-30T03:49:48.198Z,-0.10
2022-11-30T03:52:15.033Z,0.70
2022-11-30T03:54:43.157Z,-0.20
2022-11-30T03:57:10.105Z,-0.10
2022-11-30T03:59:36.910Z,-0.20
2022-11-30T04:02:04.349Z,-0.20
2022-11-30T04:04:31.691Z,-0.10
2022-11-30T04:06:58.520Z,0.10
2022-11-30T04:09:25.698Z,-0.60
2022-11-30T04:11:54.894Z,-0.10
2022-11-30T04:14:22.125Z,0.40
2022-11-30T04:16:48.874Z,-0.10
2022-11-30T04:19:15.708Z,0.20
2022-11-30T04:21:42.933Z,0.10
2022-11-30T04:24:09.720Z,0.10
2022-11-30T04:26:37.699Z,0.20
2022-11-30T04:29:05.981Z,0.20
2022-11-30T04:31:32.971Z,0.20
2022-11-30T04:34:00.532Z,0.20
2022-11-30T04:36:27.290Z,0.30
2022-11-30T04:38:54.625Z,0.20
2022-11-30T04:41:21.410Z,0.40
2022-11-30T04:43:48.774Z,0.30
2022-11-30T04:46:15.616Z,0.30
2022-11-30T04:48:42.521Z,0.40
2022-11-30T04:51:09.505Z,1.60
2022-11-30T04:53:37.672Z,1.30
2022-11-30T04:56:10.189Z,0.50
2022-11-30T04:58:39.174Z,0.40
2022-11-30T05:01:06.944Z,1.70
2022-11-30T05:03:34.264Z,0.40
2022-11-30T05:06:01.393Z,0.40
2022-11-30T05:08:28.516Z,0.50
2022-11-30T05:10:55.771Z,0.40
2022-11-30T05:13:23.790Z,0.30
2022-11-30T05:15:51.324Z,0.30
2022-11-30T05:18:18.158Z,0.30
2022-11-30T05:20:54.379Z,0.30
2022-11-30T05:23:21.663Z,1.20
2022-11-30T05:25:50.735Z,0.30
2022-11-30T05:28:17.584Z,0.20
2022-11-30T05:30:44.520Z,0.20
2022-11-30T05:33:11.781Z,0.20
2022-11-30T05:35:39.068Z,0.20
2022-11-30T05:38:06.625Z,0.10
2022-11-30T05:40:34.135Z,1.50
2022-11-30T05:43:03.198Z,0.20
2022-11-30T05:45:31.335Z,0.20
2022-11-30T05:47:58.444Z,0.30
2022-11-30T05:50:25.801Z,0.30
2022-11-30T05:52:56.545Z,0.30
2022-11-30T05:55:27.116Z,0.30
2022-11-30T05:57:54.425Z,0.30
2022-11-30T06:00:21.919Z,-0.20
2022-11-30T06:02:48.877Z,0.20
2022-11-30T06:05:16.629Z,1.30
2022-11-30T06:07:45.907Z,0.20
2022-11-30T06:10:14.174Z,0.90
2022-11-30T06:12:41.475Z,0.40
2022-11-30T06:15:11.618Z,0.30
2022-11-30T06:17:40.009Z,0.30
2022-11-30T06:20:08.018Z,0.30
2022-11-30T06:22:35.518Z,0.20
2022-11-30T06:25:03.790Z,0.20
2022-11-30T06:27:32.464Z,0.20
2022-11-30T06:29:59.621Z,0.80
2022-11-30T06:32:26.430Z,0.20
2022-11-30T06:34:54.765Z,1.20
2022-11-30T06:37:22.835Z,1.70
2022-11-30T06:40:05.927Z,0.30
2022-11-30T06:42:35.167Z,0.20
2022-11-30T06:45:02.609Z,1.20
2022-11-30T06:47:29.546Z,0.40
2022-11-30T06:49:59.143Z,1.10
2022-11-30T06:52:26.850Z,0.50
2022-11-30T06:54:54.047Z,0.50
2022-11-30T06:57:21.335Z,0.60
2022-11-30T06:59:48.119Z,0.70
2022-11-30T07:02:18.483Z,0.80
2022-11-30T07:04:46.183Z,0.90
2022-11-30T07:07:13.277Z,0.70
2022-11-30T07:09:40.622Z,0.60
2022-11-30T07:12:09.155Z,0.60
2022-11-30T07:14:36.053Z,-0.10
2022-11-30T07:17:04.918Z,0.50
2022-11-30T07:19:36.560Z,0.60
2022-11-30T07:22:05.301Z,0.50
2022-11-30T07:24:51.091Z,0.50
2022-11-30T07:27:17.859Z,0.50
2022-11-30T07:29:44.759Z,0.70
2022-11-30T07:32:11.716Z,1.40
2022-11-30T07:34:38.945Z,2.00
2022-11-30T07:37:05.844Z,1.60
2022-11-30T07:39:33.189Z,1.70
2022-11-30T07:42:00.100Z,2.00
2022-11-30T07:44:28.096Z,1.30
2022-11-30T07:46:54.928Z,2.10
2022-11-30T07:49:22.227Z,0.60
2022-11-30T07:51:49.132Z,0.80
2022-11-30T07:54:15.962Z,0.90
2022-11-30T07:56:43.977Z,0.90
2022-11-30T07:59:10.960Z,0.80
2022-11-30T08:01:38.438Z,1.60
2022-11-30T08:04:05.561Z,1.10
2022-11-30T08:06:32.501Z,1.90
2022-11-30T08:09:02.226Z,1.10
2022-11-30T08:11:33.941Z,1.20
2022-11-30T08:14:02.395Z,1.10
2022-11-30T08:16:32.027Z,1.80
2022-11-30T08:19:00.724Z,1.40
2022-11-30T08:21:30.735Z,1.30
2022-11-30T08:23:58.078Z,2.10
2022-11-30T08:26:32.159Z,0.90
2022-11-30T08:29:00.450Z,0.90
2022-11-30T08:31:29.931Z,2.10
2022-11-30T08:33:59.414Z,0.90
2022-11-30T08:36:28.288Z,1.70
2022-11-30T08:38:58.334Z,0.80
2022-11-30T08:41:26.166Z,0.70
2022-11-30T08:43:53.576Z,0.80
2022-11-30T08:49:21.386Z,0.90
2022-11-30T08:54:39.133Z,1.00
2022-11-30T08:57:06.610Z,1.90
2022-11-30T08:59:33.852Z,1.70
2022-11-30T09:02:01.167Z,1.20
2022-11-30T09:04:27.989Z,1.40
2022-11-30T09:06:59.028Z,1.50
2022-11-30T09:09:27.936Z,1.40
2022-11-30T09:14:23.065Z,1.50
2022-11-30T09:16:50.345Z,1.40
2022-11-30T09:19:17.140Z,1.30
2022-11-30T09:21:50.930Z,1.30
2022-11-30T09:24:19.211Z,1.30
2022-11-30T09:26:46.386Z,1.30
2022-11-30T09:29:14.720Z,1.30
2022-11-30T09:31:41.574Z,1.20
2022-11-30T09:34:12.145Z,2.50
2022-11-30T09:36:39.463Z,1.30
2022-11-30T09:39:06.830Z,1.50
2022-11-30T09:41:45.692Z,1.40
2022-11-30T09:44:18.860Z,1.50
2022-11-30T09:47:00.182Z,1.50
2022-11-30T09:49:39.766Z,1.30
2022-11-30T09:52:14.406Z,2.10
2022-11-30T09:54:44.125Z,2.40
2022-11-30T09:57:33.832Z,2.40
2022-11-30T10:00:04.732Z,2.20
2022-11-30T10:02:40.471Z,1.60
2022-11-30T10:05:19.854Z,1.50
2022-11-30T10:08:18.152Z,1.50
2022-11-30T10:11:17.354Z,1.40
2022-11-30T10:14:23.969Z,1.20
2022-11-30T10:16:57.944Z,1.20
2022-11-30T10:20:04.084Z,1.30
2022-11-30T10:22:46.283Z,1.30
2022-11-30T10:25:33.844Z,1.20
2022-11-30T10:28:46.468Z,1.10
2022-11-30T10:31:15.710Z,1.10
2022-11-30T10:33:51.399Z,1.20
2022-11-30T10:36:36.523Z,1.20
2022-11-30T10:39:14.242Z,1.10
2022-11-30T10:41:51.258Z,2.20
2022-11-30T10:44:40.567Z,1.20
2022-11-30T10:47:26.646Z,1.30
2022-11-30T10:49:53.516Z,1.30
2022-11-30T10:52:50.186Z,1.30
2022-11-30T10:55:44.519Z,1.20
2022-11-30T10:58:20.809Z,1.10
2022-11-30T11:00:59.543Z,1.10
2022-11-30T11:03:28.042Z,1.30
2022-11-30T11:06:17.101Z,1.00
2022-11-30T11:08:45.683Z,1.00
2022-11-30T11:11:34.982Z,1.90
2022-11-30T11:14:23.222Z,1.20
2022-11-30T11:17:02.909Z,1.40
2022-11-30T11:19:34.485Z,1.40
2022-11-30T11:22:08.531Z,1.30
2022-11-30T11:24:36.633Z,1.40
2022-11-30T11:27:03.753Z,2.60
2022-11-30T11:29:34.996Z,1.40
2022-11-30T11:32:12.181Z,1.20
2022-11-30T11:34:39.091Z,2.60
2022-11-30T11:37:15.489Z,1.30
2022-11-30T11:39:56.951Z,1.10
2022-11-30T11:42:40.964Z,1.10
2022-11-30T11:45:30.528Z,0.90
2022-11-30T11:47:59.743Z,1.10
2022-11-30T11:51:06.076Z,1.00
2022-11-30T11:53:39.580Z,1.70
2022-11-30T11:56:19.589Z,1.30
2022-11-30T11:59:14.195Z,1.50
2022-11-30T12:02:05.720Z,1.30
2022-11-30T12:04:47.196Z,1.50
2022-11-30T12:07:35.416Z,1.80
2022-11-30T12:10:49.995Z,2.00
2022-11-30T12:13:14.175Z,1.90
2022-11-30T12:15:56.448Z,1.90
2022-11-30T12:18:51.529Z,1.80
2022-11-30T12:21:26.450Z,1.70
2022-11-30T12:24:16.409Z,1.50
2022-11-30T12:26:51.018Z,1.40
2022-11-30T12:29:31.859Z,1.30
2022-11-30T12:32:25.958Z,1.20
2022-11-30T12:34:57.025Z,1.20
2022-11-30T12:37:35.836Z,1.10
2022-11-30T12:40:45.748Z,1.00
2022-11-30T12:43:43.531Z,1.00
2022-11-30T12:46:15.308Z,1.10
2022-11-30T12:49:13.084Z,2.20
2022-11-30T12:52:37.712Z,1.20
2022-11-30T12:55:35.077Z,0.10
2022-11-30T12:58:27.707Z,1.20
2022-11-30T13:01:05.191Z,1.20
2022-11-30T13:03:50.366Z,1.30
2022-11-30T13:06:59.986Z,1.30
2022-11-30T13:09:52.361Z,1.40
2022-11-30T13:12:37.415Z,1.30
2022-11-30T13:15:19.004Z,1.40
2022-11-30T13:17:46.937Z,1.40
2022-11-30T13:20:42.581Z,1.90
2022-11-30T13:23:21.338Z,1.40
2022-11-30T13:26:13.335Z,1.30
2022-11-30T13:28:50.309Z,1.40
2022-11-30T13:31:47.495Z,1.40
2022-11-30T13:34:28.859Z,1.40
2022-11-30T13:37:24.394Z,2.10
2022-11-30T13:39:57.604Z,1.60
2022-11-30T13:42:50.240Z,2.10
2022-11-30T13:45:30.636Z,0.80
2022-11-30T13:47:58.738Z,0.70
2022-11-30T13:50:33.934Z,2.10
2022-11-30T13:53:00.779Z,0.60
2022-11-30T13:55:46.268Z,1.60
2022-11-30T13:58:15.767Z,0.70
2022-11-30T14:01:02.983Z,1.60
2022-11-30T14:03:34.297Z,0.80
2022-11-30T14:06:05.765Z,0.80
2022-11-30T14:08:38.054Z,1.80
2022-11-30T14:11:35.946Z,1.50
2022-11-30T14:14:57.165Z,0.90
2022-11-30T14:17:27.096Z,0.80
2022-11-30T14:20:16.060Z,0.90
2022-11-30T14:22:44.266Z,1.00
2022-11-30T14:25:21.384Z,2.20
2022-11-30T14:27:50.932Z,1.00
2022-11-30T14:30:21.369Z,1.20
2022-11-30T14:33:04.982Z,1.00
2022-11-30T14:35:35.544Z,1.20
2022-11-30T14:38:14.687Z,1.10
2022-11-30T14:40:52.498Z,1.10
2022-11-30T14:43:19.535Z,0.90
2022-11-30T14:46:09.197Z,2.00
2022-11-30T14:48:39.664Z,1.20
2022-11-30T14:51:07.274Z,1.10
2022-11-30T14:53:53.547Z,1.00
2022-11-30T14:56:44.414Z,2.00
2022-11-30T14:59:26.276Z,1.10
2022-11-30T15:02:03.080Z,1.20
2022-11-30T15:04:31.016Z,2.10
2022-11-30T15:06:59.827Z,1.10
2022-11-30T15:09:31.840Z,1.00
2022-11-30T15:11:59.362Z,1.00
2022-11-30T15:14:26.620Z,1.90
2022-11-30T15:16:57.296Z,1.00
2022-11-30T15:19:28.517Z,1.20
2022-11-30T15:21:57.846Z,1.10
2022-11-30T15:24:25.855Z,1.10
2022-11-30T15:27:06.983Z,1.00
2022-11-30T15:29:45.143Z,1.00
2022-11-30T15:32:24.183Z,1.00
2022-11-30T15:34:56.994Z,1.40
2022-11-30T15:37:32.543Z,1.20
2022-11-30T15:40:03.907Z,1.20
2022-11-30T15:42:40.111Z,2.30
2022-11-30T15:45:25.553Z,1.10
2022-11-30T15:47:54.484Z,1.00
2022-11-30T15:50:28.646Z,1.10
2022-11-30T15:53:04.441Z,2.30
2022-11-30T15:55:46.324Z,1.30
2022-11-30T15:58:46.670Z,1.60
2022-11-30T16:01:24.635Z,1.10
2022-11-30T16:04:04.745Z,1.20
2022-11-30T16:06:46.191Z,1.30
2022-11-30T16:09:34.223Z,1.20
2022-11-30T16:12:02.589Z,1.20
2022-11-30T16:15:15.746Z,1.20
2022-11-30T16:17:48.971Z,0.70
2022-11-30T16:23:28.877Z,2.20
2022-11-30T16:25:56.249Z,0.90
2022-11-30T16:28:23.444Z,0.90
2022-11-30T16:30:50.951Z,0.90
2022-11-30T16:33:23.460Z,1.10
2022-11-30T16:36:03.337Z,1.40
2022-11-30T16:38:31.592Z,1.00
2022-11-30T16:41:12.671Z,1.10
2022-11-30T16:43:41.098Z,1.00
2022-11-30T16:46:13.753Z,1.00
2022-11-30T16:48:41.818Z,1.00
2022-11-30T16:51:28.818Z,2.40
2022-11-30T16:53:56.295Z,1.00
2022-11-30T16:56:24.303Z,1.10
2022-11-30T16:58:53.762Z,1.20
2022-11-30T17:01:36.015Z,1.40
2022-11-30T17:04:23.390Z,1.20
2022-11-30T17:06:55.867Z,1.20
2022-11-30T17:09:28.716Z,1.70
2022-11-30T17:11:55.772Z,2.60
2022-11-30T17:14:23.690Z,2.90
2022-11-30T17:16:50.832Z,1.20
2022-11-30T17:19:18.214Z,1.20
2022-11-30T17:21:46.662Z,1.20
2022-11-30T17:24:14.091Z,1.60
2022-11-30T17:26:42.806Z,1.70
2022-11-30T17:29:10.097Z,1.80
2022-11-30T17:31:37.230Z,3.00
2022-11-30T17:34:05.751Z,1.40
2022-11-30T17:36:32.876Z,1.40
2022-11-30T17:38:59.729Z,2.70
2022-11-30T17:41:28.162Z,1.30
2022-11-30T17:43:55.372Z,1.30
2022-11-30T17:46:23.100Z,2.10
2022-11-30T17:48:50.509Z,1.30
2022-11-30T17:51:24.723Z,1.30
2022-11-30T17:53:55.787Z,1.30
2022-11-30T17:59:05.493Z,2.70
2022-11-30T18:01:32.625Z,1.30
2022-11-30T18:03:59.870Z,1.90
2022-11-30T18:06:26.712Z,1.40
2022-11-30T18:08:54.679Z,1.80
2022-11-30T18:11:24.546Z,1.40
2022-11-30T18:13:54.410Z,1.50
2022-11-30T18:16:23.943Z,1.50
2022-11-30T18:18:54.297Z,1.90
2022-11-30T18:21:23.640Z,1.50
2022-11-30T18:23:53.836Z,1.50
2022-11-30T18:26:24.815Z,1.50
2022-11-30T18:28:58.262Z,1.50
2022-11-30T18:31:26.563Z,1.50
2022-11-30T18:34:03.406Z,2.20
2022-11-30T18:36:31.358Z,1.50
2022-11-30T18:38:58.266Z,1.50
2022-11-30T18:41:26.893Z,2.50
2022-11-30T18:43:57.266Z,1.40
2022-11-30T18:46:25.189Z,2.90
2022-11-30T18:49:00.453Z,1.90
2022-11-30T18:51:31.974Z,1.40
2022-11-30T18:54:07.065Z,1.50
2022-11-30T18:56:41.272Z,1.50
2022-11-30T18:59:12.861Z,1.40
2022-11-30T19:01:40.100Z,2.40
2022-11-30T19:04:10.504Z,1.80
2022-11-30T19:06:44.517Z,2.20
2022-11-30T19:09:15.399Z,2.60
2022-11-30T19:11:49.332Z,1.20
2022-11-30T19:14:19.208Z,1.40
2022-11-30T19:16:48.178Z,1.80
2022-11-30T19:19:18.755Z,1.30
2022-11-30T19:21:48.151Z,2.20
2022-11-30T19:24:18.099Z,1.40
2022-11-30T19:26:47.577Z,1.20
2022-11-30T19:29:15.786Z,1.20
2022-11-30T19:32:05.092Z,1.30
2022-11-30T19:34:37.645Z,1.20
2022-11-30T19:37:05.122Z,2.30
2022-11-30T19:42:16.355Z,2.80
2022-11-30T19:44:46.538Z,2.20
2022-11-30T19:47:23.594Z,1.30
2022-11-30T19:49:53.747Z,2.40
2022-11-30T19:52:25.454Z,1.20
2022-11-30T19:54:55.686Z,1.40
2022-11-30T19:57:26.462Z,1.40
2022-11-30T20:00:01.896Z,2.50
2022-11-30T20:05:20.358Z,2.50
2022-11-30T20:07:51.387Z,1.10
2022-11-30T20:10:19.605Z,1.10
2022-11-30T20:12:50.855Z,1.10
2022-11-30T20:15:22.622Z,1.20
2022-11-30T20:17:51.002Z,1.10
2022-11-30T20:20:27.245Z,1.20
2022-11-30T20:23:01.096Z,1.20
2022-11-30T20:25:31.940Z,1.10
2022-11-30T20:28:12.293Z,1.20
2022-11-30T20:33:51.169Z,1.10
2022-11-30T20:36:28.556Z,2.00
2022-11-30T20:39:00.509Z,0.40
2022-11-30T20:41:34.615Z,2.00
2022-11-30T20:44:36.828Z,1.30
2022-11-30T20:47:06.797Z,2.00
2022-11-30T20:49:33.864Z,1.00
2022-11-30T20:52:01.169Z,1.10
2022-11-30T20:54:32.330Z,2.50
2022-11-30T20:57:01.418Z,1.60
2022-11-30T20:59:39.311Z,1.20
2022-11-30T21:02:15.152Z,2.40
2022-11-30T21:04:44.504Z,1.20
2022-11-30T21:07:20.361Z,1.20
2022-11-30T21:12:34.741Z,1.30
2022-11-30T21:15:02.327Z,1.60
2022-11-30T21:17:29.781Z,2.00
2022-11-30T21:19:58.980Z,1.00
2022-11-30T21:22:37.587Z,2.10
2022-11-30T21:25:45.121Z,2.20
2022-11-30T21:28:13.621Z,1.10
2022-11-30T21:30:45.442Z,1.00
2022-11-30T21:33:12.269Z,2.10
2022-11-30T21:35:40.539Z,1.10
2022-11-30T21:38:07.941Z,1.00
2022-11-30T21:40:34.706Z,1.00
2022-11-30T21:43:02.002Z,1.00
2022-11-30T21:45:29.061Z,0.90
2022-11-30T21:47:56.290Z,1.00
2022-11-30T21:50:27.034Z,1.10
2022-11-30T21:52:55.509Z,1.20
2022-11-30T21:55:22.361Z,1.20
2022-11-30T21:57:55.214Z,1.30
2022-11-30T22:00:22.497Z,1.40
2022-11-30T22:02:49.385Z,1.40
2022-11-30T22:05:16.381Z,1.40
2022-11-30T22:07:46.385Z,1.40
2022-11-30T22:10:13.906Z,1.50
2022-11-30T22:12:41.479Z,1.40
2022-11-30T22:15:09.502Z,2.40
2022-11-30T22:17:37.708Z,1.20
2022-11-30T22:20:07.726Z,1.10
2022-11-30T22:22:35.345Z,1.00
2022-11-30T22:25:08.645Z,1.40
2022-11-30T22:27:36.871Z,1.00
2022-11-30T22:30:04.470Z,1.70
2022-11-30T22:32:33.565Z,1.10
2022-11-30T22:35:00.580Z,1.20
2022-11-30T22:37:27.468Z,1.20
2022-11-30T22:39:54.787Z,1.10
2022-11-30T22:42:21.711Z,2.00
2022-11-30T22:44:48.608Z,1.00
2022-11-30T22:47:15.476Z,1.10
2022-11-30T22:49:42.297Z,1.60
2022-11-30T22:52:12.073Z,1.00
2022-11-30T22:54:38.958Z,1.50
2022-11-30T22:57:06.129Z,0.80
2022-11-30T22:59:32.920Z,0.90
2022-11-30T23:02:00.726Z,0.90
2022-11-30T23:04:27.546Z,0.70
2022-11-30T23:06:56.170Z,1.50
2022-11-30T23:09:23.305Z,0.80
2022-11-30T23:11:51.904Z,0.80
2022-11-30T23:14:21.448Z,1.90
2022-11-30T23:16:49.573Z,0.90
2022-11-30T23:19:16.572Z,0.90
2022-11-30T23:21:49.228Z,0.80
2022-11-30T23:24:20.703Z,0.80
2022-11-30T23:26:49.012Z,0.80
2022-11-30T23:29:26.734Z,1.30
2022-11-30T23:31:53.998Z,0.70
2022-11-30T23:34:22.292Z,0.60
2022-11-30T23:36:51.768Z,1.20
2022-11-30T23:39:19.803Z,0.70
2022-11-30T23:41:47.496Z,2.20
2022-11-30T23:44:16.192Z,0.80
2022-11-30T23:46:43.472Z,0.80
2022-11-30T23:49:13.472Z,1.20
2022-11-30T23:51:40.298Z,1.90
2022-11-30T23:54:07.714Z,0.80
2022-11-30T23:56:34.843Z,0.90
2022-11-30T23:59:01.697Z,1.00
